createdAt,value
2019-03-05T00:00:42.863Z,6.70
2019-03-05T00:03:11.451Z,6.70
2019-03-05T00:05:40.095Z,6.70
2019-03-05T00:08:08.615Z,6.80
2019-03-05T00:10:37.074Z,6.80
2019-03-05T00:13:05.579Z,6.80
2019-03-05T00:15:34.139Z,6.80
2019-03-05T00:18:02.570Z,6.80
2019-03-05T00:20:31.116Z,6.80
2019-03-05T00:22:59.548Z,6.70
2019-03-05T00:25:33.420Z,6.70
2019-03-05T00:28:13.439Z,6.70
2019-03-05T00:30:54.074Z,6.70
2019-03-05T00:33:37.569Z,6.70
2019-03-05T00:36:24.207Z,6.80
2019-03-05T00:39:18.146Z,6.80
2019-03-05T00:42:11.877Z,6.80
2019-03-05T00:45:00.631Z,6.90
2019-03-05T00:47:48.736Z,6.90
2019-03-05T00:50:31.955Z,6.90
2019-03-05T00:53:06.422Z,6.90
2019-03-05T00:55:50.002Z,6.90
2019-03-05T00:58:24.454Z,6.90
2019-03-05T01:00:55.989Z,6.90
2019-03-05T01:03:43.820Z,6.90
2019-03-05T01:06:21.422Z,7.00
2019-03-05T01:08:49.927Z,7.00
2019-03-05T01:11:19.326Z,7.00
2019-03-05T01:13:47.763Z,7.00
2019-03-05T01:16:17.995Z,7.10
2019-03-05T01:18:46.435Z,7.10
2019-03-05T01:21:14.880Z,7.10
2019-03-05T01:23:43.327Z,7.10
2019-03-05T01:26:12.051Z,7.10
2019-03-05T01:28:40.493Z,7.10
2019-03-05T01:31:28.889Z,7.10
2019-03-05T01:34:01.652Z,7.10
2019-03-05T01:36:34.698Z,7.10
2019-03-05T01:39:07.706Z,7.00
2019-03-05T01:41:36.158Z,6.90
2019-03-05T01:44:04.658Z,6.90
2019-03-05T01:46:33.113Z,6.80
2019-03-05T01:49:01.551Z,6.80
2019-03-05T01:51:30.080Z,6.80
2019-03-05T01:53:58.515Z,6.70
2019-03-05T01:56:26.978Z,6.70
2019-03-05T01:58:55.416Z,6.70
2019-03-05T02:01:23.862Z,6.70
2019-03-05T02:03:52.310Z,6.60
2019-03-05T02:06:20.827Z,6.60
2019-03-05T02:08:49.250Z,6.60
2019-03-05T02:11:17.723Z,6.70
2019-03-05T02:13:46.155Z,6.80
2019-03-05T02:16:14.607Z,6.80
2019-03-05T02:18:43.050Z,6.80
2019-03-05T02:21:11.509Z,6.80
2019-03-05T02:23:48.667Z,6.80
2019-03-05T02:26:45.658Z,6.80
2019-03-05T02:29:22.343Z,6.80
2019-03-05T02:32:05.024Z,6.80
2019-03-05T02:34:54.575Z,6.80
2019-03-05T02:37:40.841Z,6.80
2019-03-05T02:40:29.982Z,6.80
2019-03-05T02:43:03.934Z,6.80
2019-03-05T02:45:44.259Z,6.80
2019-03-05T02:48:39.798Z,6.80
2019-03-05T02:51:34.668Z,6.80
2019-03-05T02:54:20.840Z,6.70
2019-03-05T02:57:08.737Z,6.80
2019-03-05T02:59:37.448Z,6.70
2019-03-05T03:02:11.288Z,6.70
2019-03-05T03:04:47.190Z,6.70
2019-03-05T03:07:15.647Z,6.60
2019-03-05T03:09:52.832Z,6.60
2019-03-05T03:12:21.288Z,6.50
2019-03-05T03:14:49.814Z,6.50
2019-03-05T03:17:18.328Z,6.60
2019-03-05T03:19:46.758Z,6.60
2019-03-05T03:22:15.207Z,6.60
2019-03-05T03:24:43.642Z,6.50
2019-03-05T03:27:12.090Z,6.50
2019-03-05T03:29:40.521Z,6.50
2019-03-05T03:32:08.967Z,6.50
2019-03-05T03:34:37.418Z,6.50
2019-03-05T03:37:05.943Z,6.50
2019-03-05T03:39:34.396Z,6.50
2019-03-05T03:42:02.902Z,6.50
2019-03-05T03:44:31.342Z,6.60
2019-03-05T03:46:59.862Z,6.60
2019-03-05T03:49:28.319Z,6.60
2019-03-05T03:51:56.824Z,6.60
2019-03-05T03:54:25.254Z,6.60
2019-03-05T03:56:53.882Z,6.70
2019-03-05T03:59:22.328Z,6.70
2019-03-05T04:01:50.775Z,6.80
2019-03-05T04:04:19.208Z,6.80
2019-03-05T04:06:47.664Z,6.80
2019-03-05T04:09:16.103Z,6.80
2019-03-05T04:11:44.551Z,6.80
2019-03-05T04:14:13.029Z,6.80
2019-03-05T04:16:41.466Z,6.90
2019-03-05T04:19:11.560Z,6.90
2019-03-05T04:21:40.000Z,6.90
2019-03-05T04:24:08.445Z,6.90
2019-03-05T04:26:36.880Z,6.90
2019-03-05T04:29:05.326Z,6.90
2019-03-05T04:31:34.127Z,6.90
2019-03-05T04:34:02.573Z,6.80
2019-03-05T04:36:31.009Z,6.90
2019-03-05T04:38:59.458Z,6.80
2019-03-05T04:41:27.896Z,6.80
2019-03-05T04:43:56.424Z,6.80
2019-03-05T04:46:32.194Z,6.80
2019-03-05T04:49:02.283Z,6.80
2019-03-05T04:51:32.358Z,6.80
2019-03-05T04:54:00.811Z,6.80
2019-03-05T04:56:29.241Z,6.70
2019-03-05T04:58:57.686Z,6.70
2019-03-05T05:01:26.114Z,6.70
2019-03-05T05:03:54.563Z,6.70
2019-03-05T05:06:23.005Z,6.70
2019-03-05T05:08:51.473Z,6.60
2019-03-05T05:11:19.899Z,6.60
2019-03-05T05:13:48.360Z,6.60
2019-03-05T05:16:16.786Z,6.60
2019-03-05T05:18:45.308Z,6.60
2019-03-05T05:21:13.780Z,6.60
2019-03-05T05:23:42.234Z,6.60
2019-03-05T05:26:10.671Z,6.60
2019-03-05T05:28:39.132Z,6.60
2019-03-05T05:31:07.567Z,6.60
2019-03-05T05:33:36.024Z,6.60
2019-03-05T05:36:04.462Z,6.60
2019-03-05T05:38:32.936Z,6.60
2019-03-05T05:41:01.366Z,6.50
2019-03-05T05:43:31.271Z,6.50
2019-03-05T05:45:59.783Z,6.50
2019-03-05T05:48:28.242Z,6.50
2019-03-05T05:50:56.671Z,6.50
2019-03-05T05:53:25.131Z,6.50
2019-03-05T05:55:53.573Z,6.50
2019-03-05T05:58:22.027Z,6.50
2019-03-05T06:00:52.095Z,6.50
2019-03-05T06:03:20.546Z,6.50
2019-03-05T06:05:49.081Z,6.50
2019-03-05T06:08:17.530Z,6.50
2019-03-05T06:10:46.134Z,6.50
2019-03-05T06:13:14.561Z,6.60
2019-03-05T06:15:42.995Z,6.60
2019-03-05T06:18:11.402Z,6.60
2019-03-05T06:20:42.457Z,6.60
2019-03-05T06:23:10.083Z,6.60
2019-03-05T06:25:38.612Z,6.60
2019-03-05T06:28:07.116Z,6.60
2019-03-05T06:30:40.942Z,6.60
2019-03-05T06:33:09.377Z,6.60
2019-03-05T06:35:37.858Z,6.50
2019-03-05T06:38:06.291Z,6.50
2019-03-05T06:40:34.837Z,6.60
2019-03-05T06:43:03.367Z,6.60
2019-03-05T06:45:31.833Z,6.60
2019-03-05T06:48:00.267Z,6.60
2019-03-05T06:50:29.187Z,6.60
2019-03-05T06:52:57.627Z,6.60
2019-03-05T06:55:26.090Z,6.60
2019-03-05T06:57:54.540Z,6.60
2019-03-05T07:00:40.561Z,6.60
2019-03-05T07:03:09.936Z,6.70
2019-03-05T07:06:14.521Z,6.70
2019-03-05T07:08:46.019Z,6.70
2019-03-05T07:11:36.867Z,6.70
2019-03-05T07:14:11.027Z,6.70
2019-03-05T07:16:48.172Z,6.70
2019-03-05T07:19:17.707Z,6.70
2019-03-05T07:21:51.935Z,6.80
2019-03-05T07:24:40.010Z,6.80
2019-03-05T07:27:08.891Z,6.90
2019-03-05T07:29:37.332Z,6.90
2019-03-05T07:32:05.830Z,7.00
2019-03-05T07:34:35.934Z,7.10
2019-03-05T07:37:05.626Z,7.10
2019-03-05T07:39:34.130Z,7.20
2019-03-05T07:42:02.555Z,7.30
2019-03-05T07:44:31.018Z,7.40
2019-03-05T07:46:59.450Z,7.40
2019-03-05T07:49:27.943Z,7.50
2019-03-05T07:51:56.447Z,7.50
2019-03-05T07:54:24.878Z,7.50
2019-03-05T07:56:53.349Z,7.50
2019-03-05T07:59:21.783Z,7.60
2019-03-05T08:01:50.247Z,7.60
2019-03-05T08:04:18.678Z,7.60
2019-03-05T08:06:47.132Z,7.70
2019-03-05T08:09:27.339Z,7.80
2019-03-05T08:12:08.348Z,7.80
2019-03-05T08:14:48.783Z,7.80
2019-03-05T08:17:17.307Z,7.60
2019-03-05T08:19:45.740Z,7.70
2019-03-05T08:22:14.203Z,7.70
2019-03-05T08:24:42.638Z,7.70
2019-03-05T08:27:11.156Z,7.80
2019-03-05T08:29:39.586Z,7.90
2019-03-05T08:32:08.115Z,7.90
2019-03-05T08:34:36.575Z,7.90
2019-03-05T08:37:05.100Z,7.80
2019-03-05T08:39:33.549Z,7.80
2019-03-05T08:42:02.050Z,7.70
2019-03-05T08:44:30.501Z,7.80
2019-03-05T08:46:58.952Z,7.90
2019-03-05T08:49:27.380Z,8.00
2019-03-05T08:51:55.847Z,8.00
2019-03-05T08:54:24.295Z,7.80
2019-03-05T08:56:52.754Z,7.80
2019-03-05T08:59:21.193Z,7.90
2019-03-05T09:01:49.648Z,8.00
2019-03-05T09:04:18.078Z,8.00
2019-03-05T09:06:46.536Z,8.10
2019-03-05T09:09:16.476Z,8.20
2019-03-05T09:11:44.922Z,8.30
2019-03-05T09:14:13.363Z,8.30
2019-03-05T09:16:41.816Z,8.20
2019-03-05T09:19:10.369Z,8.20
2019-03-05T09:21:38.891Z,8.20
2019-03-05T09:24:07.392Z,8.10
2019-03-05T09:26:35.835Z,8.00
2019-03-05T09:29:04.503Z,7.90
2019-03-05T09:31:32.955Z,8.00
2019-03-05T09:34:01.396Z,7.90
2019-03-05T09:36:29.877Z,7.90
2019-03-05T09:38:58.312Z,7.50
2019-03-05T09:41:26.770Z,6.60
2019-03-05T09:43:55.209Z,6.40
2019-03-05T09:46:23.662Z,6.20
2019-03-05T09:48:52.102Z,6.20
2019-03-05T09:51:20.549Z,6.20
2019-03-05T09:53:48.987Z,6.50
2019-03-05T09:56:17.453Z,6.60
2019-03-05T09:58:45.888Z,6.70
2019-03-05T10:01:14.314Z,6.70
2019-03-05T10:03:42.767Z,6.80
2019-03-05T10:06:11.216Z,6.90
2019-03-05T10:08:39.670Z,7.00
2019-03-05T10:11:08.182Z,7.20
2019-03-05T10:13:36.647Z,7.30
2019-03-05T10:16:05.844Z,7.40
2019-03-05T10:18:34.282Z,7.50
2019-03-05T10:21:02.890Z,7.60
2019-03-05T10:23:31.344Z,7.70
2019-03-05T10:25:59.792Z,7.90
2019-03-05T10:28:28.632Z,8.00
2019-03-05T10:30:57.119Z,8.20
2019-03-05T10:33:25.583Z,8.30
2019-03-05T10:35:54.161Z,8.40
2019-03-05T10:38:22.615Z,8.30
2019-03-05T10:40:54.145Z,8.20
2019-03-05T10:43:22.594Z,8.20
2019-03-05T10:45:51.099Z,8.30
2019-03-05T10:48:24.229Z,8.40
2019-03-05T10:50:52.916Z,8.40
2019-03-05T10:53:21.719Z,8.50
2019-03-05T10:55:50.414Z,8.50
2019-03-05T10:58:19.082Z,8.60
2019-03-05T11:00:50.026Z,8.60
2019-03-05T11:03:20.410Z,8.70
2019-03-05T11:05:48.854Z,8.50
2019-03-05T11:08:25.286Z,8.50
2019-03-05T11:10:54.351Z,8.40
2019-03-05T11:13:22.811Z,8.30
2019-03-05T11:15:56.646Z,8.40
2019-03-05T11:18:29.504Z,8.50
2019-03-05T11:20:55.277Z,8.50
2019-03-05T11:23:23.734Z,8.50
2019-03-05T11:25:52.188Z,8.40
2019-03-05T11:28:20.648Z,8.40
2019-03-05T11:30:49.153Z,8.20
2019-03-05T11:33:17.639Z,8.20
2019-03-05T11:35:46.139Z,8.20
2019-03-05T11:38:14.627Z,8.30
2019-03-05T11:40:43.064Z,8.40
2019-03-05T11:43:13.346Z,8.40
2019-03-05T11:45:43.035Z,8.40
2019-03-05T11:48:11.746Z,8.40
2019-03-05T11:50:40.251Z,8.30
2019-03-05T11:53:08.811Z,8.40
2019-03-05T11:55:37.375Z,8.30
2019-03-05T11:58:05.894Z,8.30
2019-03-05T12:00:52.860Z,8.40
2019-03-05T12:03:21.362Z,8.40
2019-03-05T12:05:49.958Z,8.40
2019-03-05T12:08:18.437Z,8.40
2019-03-05T12:10:46.873Z,8.40
2019-03-05T12:13:15.353Z,8.30
2019-03-05T12:15:45.311Z,8.30
2019-03-05T12:18:13.763Z,8.40
2019-03-05T12:20:42.270Z,8.60
2019-03-05T12:23:11.886Z,8.90
2019-03-05T12:25:41.207Z,9.20
2019-03-05T12:28:10.950Z,9.30
2019-03-05T12:30:39.873Z,9.50
2019-03-05T12:33:08.629Z,9.60
2019-03-05T12:35:37.092Z,9.20
2019-03-05T12:38:05.742Z,9.00
2019-03-05T12:40:34.177Z,8.90
2019-03-05T12:43:02.756Z,8.70
2019-03-05T12:45:31.240Z,8.80
2019-03-05T12:47:59.785Z,8.80
2019-03-05T12:50:30.651Z,8.70
2019-03-05T12:52:59.088Z,8.90
2019-03-05T12:55:27.611Z,9.00
2019-03-05T12:57:56.050Z,9.20
2019-03-05T13:00:30.384Z,9.40
2019-03-05T13:02:58.834Z,9.40
2019-03-05T13:05:27.378Z,9.30
2019-03-05T13:07:56.687Z,9.10
2019-03-05T13:10:27.432Z,9.00
2019-03-05T13:12:55.879Z,8.00
2019-03-05T13:15:27.406Z,7.50
2019-03-05T13:17:55.846Z,7.20
2019-03-05T13:20:26.229Z,7.10
2019-03-05T13:22:54.608Z,7.20
2019-03-05T13:25:24.332Z,7.30
2019-03-05T13:27:57.583Z,7.50
2019-03-05T13:30:28.782Z,7.70
2019-03-05T13:32:59.150Z,7.90
2019-03-05T13:35:30.279Z,8.00
2019-03-05T13:38:03.231Z,8.30
2019-03-05T13:40:34.020Z,8.40
2019-03-05T13:43:02.900Z,8.50
2019-03-05T13:45:31.354Z,8.50
2019-03-05T13:48:15.017Z,8.50
2019-03-05T13:50:57.214Z,8.50
2019-03-05T13:53:45.288Z,8.50
2019-03-05T13:56:37.878Z,8.50
2019-03-05T13:59:11.024Z,8.50
2019-03-05T14:01:39.454Z,8.40
2019-03-05T14:04:11.319Z,8.30
2019-03-05T14:06:42.835Z,8.30
2019-03-05T14:09:13.941Z,8.30
2019-03-05T14:11:43.681Z,8.30
2019-03-05T14:14:25.776Z,8.50
2019-03-05T14:17:06.970Z,8.80
2019-03-05T14:19:35.365Z,8.90
2019-03-05T14:22:03.853Z,8.90
2019-03-05T14:24:34.345Z,8.90
2019-03-05T14:27:02.535Z,9.00
2019-03-05T14:29:31.042Z,9.00
2019-03-05T14:31:59.498Z,9.00
2019-03-05T14:34:27.971Z,9.00
2019-03-05T14:36:56.503Z,9.00
2019-03-05T14:39:28.980Z,8.90
2019-03-05T14:41:57.556Z,8.70
2019-03-05T14:44:26.158Z,8.60
2019-03-05T14:46:56.482Z,8.70
2019-03-05T14:49:25.152Z,8.60
2019-03-05T14:51:53.746Z,8.60
2019-03-05T14:54:22.358Z,8.60
2019-03-05T14:56:50.995Z,8.60
2019-03-05T14:59:19.501Z,8.60
2019-03-05T15:01:48.060Z,8.50
2019-03-05T15:04:16.566Z,8.50
2019-03-05T15:06:45.119Z,8.50
2019-03-05T15:09:13.601Z,8.50
2019-03-05T15:11:42.228Z,8.40
2019-03-05T15:14:10.777Z,8.60
2019-03-05T15:16:39.314Z,8.60
2019-03-05T15:19:07.802Z,8.60
2019-03-05T15:21:36.351Z,8.60
2019-03-05T15:24:04.908Z,8.60
2019-03-05T15:26:33.455Z,8.60
2019-03-05T15:29:01.949Z,8.60
2019-03-05T15:31:30.466Z,8.60
2019-03-05T15:33:59.087Z,8.60
2019-03-05T15:36:27.684Z,8.60
2019-03-05T15:38:56.219Z,8.50
2019-03-05T15:41:24.776Z,8.50
2019-03-05T15:43:53.246Z,8.50
2019-03-05T15:46:21.835Z,8.40
2019-03-05T15:48:50.328Z,8.40
2019-03-05T15:51:18.936Z,8.30
2019-03-05T15:56:15.910Z,8.00
2019-03-05T15:58:44.409Z,7.80
2019-03-05T16:01:21.885Z,7.60
2019-03-05T16:03:43.017Z,7.60
2019-03-05T16:06:13.898Z,7.60
2019-03-05T16:08:41.646Z,7.40
2019-03-05T16:11:10.161Z,7.40
2019-03-05T16:13:38.990Z,7.30
2019-03-05T16:16:07.524Z,7.10
2019-03-05T16:18:39.171Z,7.10
2019-03-05T16:21:07.105Z,7.10
2019-03-05T16:23:35.682Z,7.00
2019-03-05T16:26:04.132Z,7.00
2019-03-05T16:28:39.180Z,7.00
2019-03-05T16:31:13.239Z,6.50
2019-03-05T16:33:45.697Z,6.10
2019-03-05T16:36:31.653Z,5.60
2019-03-05T16:39:01.884Z,5.50
2019-03-05T16:41:44.223Z,5.50
2019-03-05T16:44:29.116Z,5.50
2019-03-05T16:47:17.210Z,5.50
2019-03-05T16:49:47.470Z,5.50
2019-03-05T16:52:20.440Z,5.50
2019-03-05T16:54:59.757Z,5.40
2019-03-05T16:57:45.859Z,5.30
2019-03-05T17:00:16.483Z,5.30
2019-03-05T17:03:02.697Z,5.20
2019-03-05T17:05:38.593Z,5.10
2019-03-05T17:08:14.863Z,5.10
2019-03-05T17:11:02.787Z,5.10
2019-03-05T17:13:31.252Z,5.00
2019-03-05T17:15:59.783Z,5.00
2019-03-05T17:18:28.303Z,5.00
2019-03-05T17:20:56.813Z,5.00
2019-03-05T17:23:25.336Z,5.00
2019-03-05T17:25:53.786Z,5.00
2019-03-05T17:28:22.362Z,5.00
2019-03-05T17:30:50.878Z,5.00
2019-03-05T17:33:19.508Z,5.00
2019-03-05T17:35:47.935Z,5.00
2019-03-05T17:38:16.393Z,4.90
2019-03-05T17:40:44.907Z,4.90
2019-03-05T17:43:13.366Z,4.90
2019-03-05T17:45:41.805Z,4.90
2019-03-05T17:48:10.255Z,4.90
2019-03-05T17:50:38.687Z,4.90
2019-03-05T17:53:07.228Z,4.90
2019-03-05T17:55:35.665Z,4.90
2019-03-05T17:58:04.246Z,4.90
2019-03-05T18:00:40.278Z,4.80
2019-03-05T18:03:08.766Z,4.80
2019-03-05T18:05:37.225Z,4.90
2019-03-05T18:08:05.997Z,4.90
2019-03-05T18:10:34.570Z,4.90
2019-03-05T18:13:03.043Z,4.90
2019-03-05T18:15:31.559Z,4.90
2019-03-05T18:18:00.014Z,4.90
2019-03-05T18:20:28.471Z,4.90
2019-03-05T18:22:56.942Z,4.90
2019-03-05T18:25:25.381Z,5.50
2019-03-05T18:27:54.139Z,4.90
2019-03-05T18:30:26.654Z,4.90
2019-03-05T18:32:55.524Z,5.00
2019-03-05T18:35:24.038Z,5.00
2019-03-05T18:37:52.660Z,4.90
2019-03-05T18:40:24.606Z,4.90
2019-03-05T18:42:53.289Z,4.90
2019-03-05T18:45:31.406Z,4.90
2019-03-05T18:48:00.038Z,4.90
2019-03-05T18:50:28.481Z,4.90
2019-03-05T18:53:01.149Z,4.90
2019-03-05T18:55:29.875Z,4.90
2019-03-05T18:57:58.381Z,4.90
2019-03-05T19:00:29.051Z,4.90
2019-03-05T19:03:00.552Z,4.90
2019-03-05T19:05:29.082Z,4.90
2019-03-05T19:07:57.601Z,4.90
2019-03-05T19:10:26.263Z,4.90
2019-03-05T19:12:54.708Z,4.90
2019-03-05T19:15:24.505Z,4.90
2019-03-05T19:17:53.013Z,4.90
2019-03-05T19:20:25.526Z,4.90
2019-03-05T19:22:53.969Z,4.90
2019-03-05T19:25:33.331Z,4.90
2019-03-05T19:28:01.754Z,4.90
2019-03-05T19:30:34.793Z,4.90
2019-03-05T19:33:03.296Z,4.90
2019-03-05T19:35:31.743Z,4.90
2019-03-05T19:38:00.170Z,5.00
2019-03-05T19:40:36.807Z,5.00
2019-03-05T19:43:06.010Z,5.00
2019-03-05T19:45:34.589Z,5.00
2019-03-05T19:48:03.052Z,5.00
2019-03-05T19:50:31.516Z,5.00
2019-03-05T19:53:00.195Z,5.00
2019-03-05T19:55:29.593Z,5.00
2019-03-05T19:58:16.976Z,5.00
2019-03-05T20:01:07.676Z,5.00
2019-03-05T20:03:36.181Z,4.90
2019-03-05T20:06:05.077Z,4.90
2019-03-05T20:08:39.916Z,4.90
2019-03-05T20:11:04.235Z,4.90
2019-03-05T20:13:33.002Z,4.90
2019-03-05T20:16:01.568Z,4.90
2019-03-05T20:18:30.037Z,4.90
2019-03-05T20:20:58.775Z,4.90
2019-03-05T20:23:27.235Z,4.90
2019-03-05T20:25:55.752Z,4.80
2019-03-05T20:28:24.347Z,4.90
2019-03-05T20:30:52.877Z,4.90
2019-03-05T20:33:21.418Z,4.80
2019-03-05T20:35:50.068Z,4.80
2019-03-05T20:38:18.680Z,4.90
2019-03-05T20:40:47.287Z,4.90
2019-03-05T20:43:15.815Z,4.90
2019-03-05T20:45:47.136Z,4.90
2019-03-05T20:48:15.769Z,4.90
2019-03-05T20:50:44.254Z,4.80
2019-03-05T20:53:12.763Z,4.80
2019-03-05T20:55:41.258Z,4.80
2019-03-05T20:58:09.780Z,4.80
2019-03-05T21:00:39.582Z,4.80
2019-03-05T21:03:09.226Z,4.80
2019-03-05T21:05:42.187Z,4.70
2019-03-05T21:08:10.896Z,4.70
2019-03-05T21:10:39.373Z,4.70
2019-03-05T21:13:13.402Z,4.70
2019-03-05T21:15:41.985Z,4.70
2019-03-05T21:18:15.671Z,4.70
2019-03-05T21:20:44.150Z,4.60
2019-03-05T21:23:12.664Z,4.60
2019-03-05T21:25:41.117Z,4.60
2019-03-05T21:28:09.554Z,4.60
2019-03-05T21:30:38.084Z,4.50
2019-03-05T21:33:06.520Z,4.50
2019-03-05T21:35:34.984Z,4.50
2019-03-05T21:38:03.491Z,4.50
2019-03-05T21:40:33.087Z,4.50
2019-03-05T21:43:01.530Z,4.50
2019-03-05T21:45:41.430Z,4.50
2019-03-05T21:48:09.966Z,4.40
2019-03-05T21:50:38.422Z,4.50
2019-03-05T21:53:07.055Z,4.50
2019-03-05T21:55:35.717Z,4.50
2019-03-05T21:58:04.299Z,4.40
2019-03-05T22:00:38.851Z,4.50
2019-03-05T22:03:07.552Z,4.50
2019-03-05T22:05:36.007Z,4.50
2019-03-05T22:08:04.613Z,4.50
2019-03-05T22:10:33.607Z,4.60
2019-03-05T22:13:02.121Z,4.50
2019-03-05T22:15:35.892Z,4.50
2019-03-05T22:18:04.411Z,4.50
2019-03-05T22:20:32.954Z,4.50
2019-03-05T22:23:03.337Z,4.50
2019-03-05T22:25:31.980Z,4.50
2019-03-05T22:28:00.518Z,4.40
2019-03-05T22:30:34.259Z,4.40
2019-03-05T22:33:02.758Z,4.50
2019-03-05T22:35:31.259Z,4.40
2019-03-05T22:37:59.874Z,4.40
2019-03-05T22:40:30.111Z,4.40
2019-03-05T22:42:58.621Z,4.40
2019-03-05T22:45:29.453Z,4.40
2019-03-05T22:47:58.024Z,4.40
2019-03-05T22:50:26.542Z,4.40
2019-03-05T22:52:54.999Z,4.40
2019-03-05T22:55:23.447Z,4.30
2019-03-05T22:57:51.921Z,4.30
2019-03-05T23:00:36.963Z,4.30
2019-03-05T23:03:08.132Z,4.30
2019-03-05T23:05:36.677Z,4.30
2019-03-05T23:08:05.477Z,4.30
2019-03-05T23:10:34.058Z,4.30
2019-03-05T23:13:02.702Z,4.30
2019-03-05T23:15:31.726Z,4.30
2019-03-05T23:18:00.255Z,4.30
2019-03-05T23:20:28.974Z,4.30
2019-03-05T23:22:57.435Z,4.30
2019-03-05T23:25:26.479Z,4.30
2019-03-05T23:27:54.923Z,4.20
2019-03-05T23:30:23.422Z,4.30
2019-03-05T23:32:53.207Z,4.20
2019-03-05T23:35:21.789Z,4.20
2019-03-05T23:37:50.399Z,4.10
2019-03-05T23:40:19.235Z,4.10
2019-03-05T23:42:47.683Z,4.10
2019-03-05T23:45:17.572Z,4.10
2019-03-05T23:47:46.095Z,4.10
2019-03-05T23:50:15.572Z,4.10
2019-03-05T23:52:44.029Z,4.10
2019-03-05T23:55:13.108Z,4.20
2019-03-05T23:57:41.640Z,4.20
